sensor_id;sensor_type;location;lat;lon;timestamp;P1;durP1;ratioP1;P2;durP2;ratioP2
18661;SDS011;61528;49.456;11.098;2022-12-18T00:03:46;31.33;;;13.00;;
18661;SDS011;61528;49.456;11.098;2022-12-18T00:06:12;28.90;;;14.00;;
18661;SDS011;61528;49.456;11.098;2022-12-18T00:08:40;28.77;;;13.37;;
18661;SDS011;61528;49.456;11.098;2022-12-18T00:11:07;26.30;;;12.87;;
18661;SDS011;61528;49.456;11.098;2022-12-18T00:13:34;29.60;;;12.77;;
18661;SDS011;61528;49.456;11.098;2022-12-18T00:16:03;24.37;;;12.50;;
18661;SDS011;61528;49.456;11.098;2022-12-18T00:18:30;28.73;;;13.23;;
18661;SDS011;61528;49.456;11.098;2022-12-18T00:21:01;26.67;;;13.00;;
18661;SDS011;61528;49.456;11.098;2022-12-18T00:23:28;23.67;;;12.63;;
18661;SDS011;61528;49.456;11.098;2022-12-18T00:25:54;28.13;;;13.57;;
18661;SDS011;61528;49.456;11.098;2022-12-18T00:28:21;26.20;;;13.60;;
18661;SDS011;61528;49.456;11.098;2022-12-18T00:30:47;26.37;;;12.67;;
18661;SDS011;61528;49.456;11.098;2022-12-18T00:33:17;27.07;;;12.17;;
18661;SDS011;61528;49.456;11.098;2022-12-18T00:35:43;22.53;;;11.53;;
18661;SDS011;61528;49.456;11.098;2022-12-18T00:38:09;28.73;;;12.60;;
18661;SDS011;61528;49.456;11.098;2022-12-18T00:40:35;29.53;;;13.27;;
18661;SDS011;61528;49.456;11.098;2022-12-18T00:43:01;30.37;;;13.07;;
18661;SDS011;61528;49.456;11.098;2022-12-18T00:45:28;31.57;;;12.83;;
18661;SDS011;61528;49.456;11.098;2022-12-18T00:47:55;28.80;;;12.73;;
18661;SDS011;61528;49.456;11.098;2022-12-18T00:50:22;26.77;;;12.17;;
18661;SDS011;61528;49.456;11.098;2022-12-18T00:52:49;29.17;;;14.13;;
18661;SDS011;61528;49.456;11.098;2022-12-18T00:55:15;26.20;;;13.43;;
18661;SDS011;61528;49.456;11.098;2022-12-18T00:57:42;27.13;;;12.63;;
18661;SDS011;61528;49.456;11.098;2022-12-18T01:00:10;29.90;;;13.30;;
18661;SDS011;61528;49.456;11.098;2022-12-18T01:02:37;25.27;;;12.60;;
18661;SDS011;61528;49.456;11.098;2022-12-18T01:05:03;28.33;;;13.27;;
18661;SDS011;61528;49.456;11.098;2022-12-18T01:07:30;29.83;;;14.40;;
18661;SDS011;61528;49.456;11.098;2022-12-18T01:09:56;31.47;;;13.93;;
18661;SDS011;61528;49.456;11.098;2022-12-18T01:12:22;34.63;;;15.73;;
18661;SDS011;61528;49.456;11.098;2022-12-18T01:14:48;23.67;;;13.53;;
18661;SDS011;61528;49.456;11.098;2022-12-18T01:17:15;34.40;;;14.20;;
18661;SDS011;61528;49.456;11.098;2022-12-18T01:19:41;31.33;;;13.13;;
18661;SDS011;61528;49.456;11.098;2022-12-18T01:22:07;30.70;;;13.83;;
18661;SDS011;61528;49.456;11.098;2022-12-18T01:24:33;28.10;;;14.53;;
18661;SDS011;61528;49.456;11.098;2022-12-18T01:27:00;33.40;;;15.57;;
18661;SDS011;61528;49.456;11.098;2022-12-18T01:29:26;27.50;;;13.90;;
18661;SDS011;61528;49.456;11.098;2022-12-18T01:31:54;34.93;;;15.10;;
18661;SDS011;61528;49.456;11.098;2022-12-18T01:34:20;31.03;;;14.57;;
18661;SDS011;61528;49.456;11.098;2022-12-18T01:36:47;26.70;;;13.37;;
18661;SDS011;61528;49.456;11.098;2022-12-18T01:39:13;29.67;;;15.30;;
18661;SDS011;61528;49.456;11.098;2022-12-18T01:41:40;28.03;;;13.23;;
18661;SDS011;61528;49.456;11.098;2022-12-18T01:47:10;32.23;;;14.83;;
18661;SDS011;61528;49.456;11.098;2022-12-18T01:49:40;27.73;;;12.97;;
18661;SDS011;61528;49.456;11.098;2022-12-18T01:52:07;25.53;;;12.57;;
18661;SDS011;61528;49.456;11.098;2022-12-18T01:54:33;30.37;;;13.07;;
18661;SDS011;61528;49.456;11.098;2022-12-18T01:56:59;27.93;;;13.50;;
18661;SDS011;61528;49.456;11.098;2022-12-18T01:59:26;25.87;;;12.93;;
18661;SDS011;61528;49.456;11.098;2022-12-18T02:01:53;27.77;;;12.47;;
18661;SDS011;61528;49.456;11.098;2022-12-18T02:06:46;30.10;;;14.10;;
18661;SDS011;61528;49.456;11.098;2022-12-18T02:11:41;32.23;;;13.53;;
18661;SDS011;61528;49.456;11.098;2022-12-18T02:22:23;32.53;;;12.60;;
18661;SDS011;61528;49.456;11.098;2022-12-18T02:27:17;31.27;;;14.13;;
18661;SDS011;61528;49.456;11.098;2022-12-18T02:29:46;31.00;;;13.63;;
18661;SDS011;61528;49.456;11.098;2022-12-18T02:32:14;27.80;;;11.77;;
18661;SDS011;61528;49.456;11.098;2022-12-18T02:34:41;28.47;;;11.53;;
18661;SDS011;61528;49.456;11.098;2022-12-18T02:37:11;31.07;;;13.80;;
18661;SDS011;61528;49.456;11.098;2022-12-18T02:39:38;31.73;;;14.17;;
18661;SDS011;61528;49.456;11.098;2022-12-18T02:42:06;22.90;;;12.13;;
18661;SDS011;61528;49.456;11.098;2022-12-18T02:44:45;31.87;;;13.13;;
18661;SDS011;61528;49.456;11.098;2022-12-18T02:47:12;29.00;;;13.83;;
18661;SDS011;61528;49.456;11.098;2022-12-18T02:57:15;25.93;;;11.77;;
18661;SDS011;61528;49.456;11.098;2022-12-18T02:59:47;26.47;;;11.93;;
18661;SDS011;61528;49.456;11.098;2022-12-18T03:04:50;29.83;;;12.70;;
18661;SDS011;61528;49.456;11.098;2022-12-18T03:07:23;25.23;;;11.80;;
18661;SDS011;61528;49.456;11.098;2022-12-18T03:09:50;26.67;;;11.83;;
18661;SDS011;61528;49.456;11.098;2022-12-18T03:12:26;31.40;;;12.50;;
18661;SDS011;61528;49.456;11.098;2022-12-18T03:20:40;23.87;;;12.17;;
18661;SDS011;61528;49.456;11.098;2022-12-18T03:23:11;21.03;;;10.37;;
18661;SDS011;61528;49.456;11.098;2022-12-18T03:25:39;19.30;;;8.93;;
18661;SDS011;61528;49.456;11.098;2022-12-18T03:28:06;26.43;;;11.27;;
18661;SDS011;61528;49.456;11.098;2022-12-18T03:30:33;29.47;;;12.03;;
18661;SDS011;61528;49.456;11.098;2022-12-18T03:33:05;30.97;;;11.57;;
18661;SDS011;61528;49.456;11.098;2022-12-18T03:35:35;20.77;;;10.33;;
18661;SDS011;61528;49.456;11.098;2022-12-18T03:38:03;23.23;;;10.70;;
18661;SDS011;61528;49.456;11.098;2022-12-18T03:40:32;24.60;;;12.10;;
18661;SDS011;61528;49.456;11.098;2022-12-18T03:43:05;25.83;;;11.17;;
18661;SDS011;61528;49.456;11.098;2022-12-18T03:45:36;24.13;;;10.57;;
18661;SDS011;61528;49.456;11.098;2022-12-18T03:55:22;25.93;;;10.03;;
18661;SDS011;61528;49.456;11.098;2022-12-18T03:57:50;20.57;;;10.90;;
18661;SDS011;61528;49.456;11.098;2022-12-18T04:00:18;29.23;;;12.47;;
18661;SDS011;61528;49.456;11.098;2022-12-18T04:02:46;23.83;;;9.83;;
18661;SDS011;61528;49.456;11.098;2022-12-18T04:05:14;28.30;;;11.63;;
18661;SDS011;61528;49.456;11.098;2022-12-18T04:07:41;28.63;;;11.80;;
18661;SDS011;61528;49.456;11.098;2022-12-18T04:10:09;28.70;;;12.23;;
18661;SDS011;61528;49.456;11.098;2022-12-18T04:12:36;26.03;;;11.63;;
18661;SDS011;61528;49.456;11.098;2022-12-18T04:15:03;28.47;;;11.83;;
18661;SDS011;61528;49.456;11.098;2022-12-18T04:17:30;27.13;;;10.40;;
18661;SDS011;61528;49.456;11.098;2022-12-18T04:19:56;23.70;;;10.87;;
18661;SDS011;61528;49.456;11.098;2022-12-18T04:22:22;29.40;;;11.90;;
18661;SDS011;61528;49.456;11.098;2022-12-18T04:24:48;20.87;;;9.40;;
18661;SDS011;61528;49.456;11.098;2022-12-18T04:27:14;24.23;;;9.07;;
18661;SDS011;61528;49.456;11.098;2022-12-18T04:29:41;26.00;;;10.17;;
18661;SDS011;61528;49.456;11.098;2022-12-18T04:32:07;22.63;;;10.63;;
18661;SDS011;61528;49.456;11.098;2022-12-18T04:34:33;29.17;;;11.40;;
18661;SDS011;61528;49.456;11.098;2022-12-18T04:37:00;24.10;;;10.33;;
18661;SDS011;61528;49.456;11.098;2022-12-18T04:39:26;27.67;;;9.73;;
18661;SDS011;61528;49.456;11.098;2022-12-18T04:41:52;27.97;;;12.73;;
18661;SDS011;61528;49.456;11.098;2022-12-18T04:44:18;29.03;;;11.23;;
18661;SDS011;61528;49.456;11.098;2022-12-18T04:46:45;31.17;;;11.70;;
18661;SDS011;61528;49.456;11.098;2022-12-18T04:49:11;24.47;;;10.07;;
18661;SDS011;61528;49.456;11.098;2022-12-18T04:51:38;24.40;;;11.57;;
18661;SDS011;61528;49.456;11.098;2022-12-18T04:54:04;26.73;;;10.83;;
18661;SDS011;61528;49.456;11.098;2022-12-18T04:56:31;22.40;;;10.03;;
18661;SDS011;61528;49.456;11.098;2022-12-18T04:58:57;26.30;;;10.17;;
18661;SDS011;61528;49.456;11.098;2022-12-18T05:01:23;23.10;;;9.93;;
18661;SDS011;61528;49.456;11.098;2022-12-18T05:03:50;25.63;;;11.53;;
18661;SDS011;61528;49.456;11.098;2022-12-18T05:06:17;30.07;;;11.53;;
18661;SDS011;61528;49.456;11.098;2022-12-18T05:08:43;28.20;;;11.43;;
18661;SDS011;61528;49.456;11.098;2022-12-18T05:11:10;26.23;;;10.03;;
18661;SDS011;61528;49.456;11.098;2022-12-18T05:13:37;23.53;;;10.00;;
18661;SDS011;61528;49.456;11.098;2022-12-18T05:16:04;20.40;;;9.23;;
18661;SDS011;61528;49.456;11.098;2022-12-18T05:18:30;20.77;;;9.27;;
18661;SDS011;61528;49.456;11.098;2022-12-18T05:20:57;26.37;;;11.07;;
18661;SDS011;61528;49.456;11.098;2022-12-18T05:23:23;21.07;;;9.83;;
18661;SDS011;61528;49.456;11.098;2022-12-18T05:25:50;28.17;;;10.97;;
18661;SDS011;61528;49.456;11.098;2022-12-18T05:28:17;27.17;;;11.10;;
18661;SDS011;61528;49.456;11.098;2022-12-18T05:30:47;27.77;;;12.20;;
18661;SDS011;61528;49.456;11.098;2022-12-18T05:33:13;25.10;;;10.30;;
18661;SDS011;61528;49.456;11.098;2022-12-18T05:35:39;27.67;;;11.90;;
18661;SDS011;61528;49.456;11.098;2022-12-18T05:38:05;27.27;;;10.97;;
18661;SDS011;61528;49.456;11.098;2022-12-18T05:40:32;31.43;;;11.60;;
18661;SDS011;61528;49.456;11.098;2022-12-18T05:42:58;26.77;;;11.50;;
18661;SDS011;61528;49.456;11.098;2022-12-18T05:45:24;27.43;;;11.50;;
18661;SDS011;61528;49.456;11.098;2022-12-18T05:47:50;28.00;;;11.70;;
18661;SDS011;61528;49.456;11.098;2022-12-18T05:50:17;32.93;;;11.00;;
18661;SDS011;61528;49.456;11.098;2022-12-18T05:52:43;27.73;;;10.53;;
18661;SDS011;61528;49.456;11.098;2022-12-18T05:55:09;25.50;;;9.90;;
18661;SDS011;61528;49.456;11.098;2022-12-18T05:57:35;24.70;;;11.03;;
18661;SDS011;61528;49.456;11.098;2022-12-18T06:00:02;24.13;;;10.47;;
18661;SDS011;61528;49.456;11.098;2022-12-18T06:02:29;29.40;;;11.53;;
18661;SDS011;61528;49.456;11.098;2022-12-18T06:04:55;29.03;;;11.40;;
18661;SDS011;61528;49.456;11.098;2022-12-18T06:07:22;28.77;;;12.10;;
18661;SDS011;61528;49.456;11.098;2022-12-18T06:09:48;29.07;;;11.63;;
18661;SDS011;61528;49.456;11.098;2022-12-18T06:12:14;25.03;;;10.93;;
18661;SDS011;61528;49.456;11.098;2022-12-18T06:14:40;30.50;;;10.77;;
18661;SDS011;61528;49.456;11.098;2022-12-18T06:17:06;27.57;;;11.60;;
18661;SDS011;61528;49.456;11.098;2022-12-18T06:19:32;30.10;;;11.30;;
18661;SDS011;61528;49.456;11.098;2022-12-18T06:21:58;33.87;;;12.93;;
18661;SDS011;61528;49.456;11.098;2022-12-18T06:24:25;27.70;;;12.43;;
18661;SDS011;61528;49.456;11.098;2022-12-18T06:26:51;26.70;;;10.70;;
18661;SDS011;61528;49.456;11.098;2022-12-18T06:29:17;27.93;;;11.07;;
18661;SDS011;61528;49.456;11.098;2022-12-18T06:31:43;26.60;;;12.10;;
18661;SDS011;61528;49.456;11.098;2022-12-18T06:34:09;30.10;;;12.03;;
18661;SDS011;61528;49.456;11.098;2022-12-18T06:36:35;31.57;;;11.63;;
18661;SDS011;61528;49.456;11.098;2022-12-18T06:39:02;30.07;;;12.97;;
18661;SDS011;61528;49.456;11.098;2022-12-18T06:41:28;28.53;;;11.43;;
18661;SDS011;61528;49.456;11.098;2022-12-18T06:43:55;26.07;;;11.20;;
18661;SDS011;61528;49.456;11.098;2022-12-18T06:46:21;24.63;;;10.53;;
18661;SDS011;61528;49.456;11.098;2022-12-18T06:48:48;28.17;;;11.93;;
18661;SDS011;61528;49.456;11.098;2022-12-18T06:51:18;24.80;;;11.10;;
18661;SDS011;61528;49.456;11.098;2022-12-18T06:53:48;27.27;;;11.07;;
18661;SDS011;61528;49.456;11.098;2022-12-18T06:56:14;33.57;;;13.17;;
18661;SDS011;61528;49.456;11.098;2022-12-18T06:58:41;29.33;;;12.07;;
18661;SDS011;61528;49.456;11.098;2022-12-18T07:01:09;30.93;;;12.60;;
18661;SDS011;61528;49.456;11.098;2022-12-18T07:03:36;27.37;;;11.07;;
18661;SDS011;61528;49.456;11.098;2022-12-18T07:06:02;28.93;;;12.17;;
18661;SDS011;61528;49.456;11.098;2022-12-18T07:08:29;27.23;;;11.40;;
18661;SDS011;61528;49.456;11.098;2022-12-18T07:10:56;34.30;;;12.20;;
18661;SDS011;61528;49.456;11.098;2022-12-18T07:13:22;30.83;;;11.90;;
18661;SDS011;61528;49.456;11.098;2022-12-18T07:15:49;27.00;;;11.63;;
18661;SDS011;61528;49.456;11.098;2022-12-18T07:18:15;33.30;;;12.40;;
18661;SDS011;61528;49.456;11.098;2022-12-18T07:20:41;27.33;;;12.80;;
18661;SDS011;61528;49.456;11.098;2022-12-18T07:23:07;31.20;;;12.37;;
18661;SDS011;61528;49.456;11.098;2022-12-18T07:25:37;28.03;;;11.80;;
18661;SDS011;61528;49.456;11.098;2022-12-18T07:28:04;29.67;;;13.07;;
18661;SDS011;61528;49.456;11.098;2022-12-18T07:30:31;30.53;;;11.70;;
18661;SDS011;61528;49.456;11.098;2022-12-18T07:32:57;26.27;;;11.77;;
18661;SDS011;61528;49.456;11.098;2022-12-18T07:35:23;30.37;;;11.80;;
18661;SDS011;61528;49.456;11.098;2022-12-18T07:37:49;30.57;;;12.00;;
18661;SDS011;61528;49.456;11.098;2022-12-18T07:40:15;34.97;;;13.73;;
18661;SDS011;61528;49.456;11.098;2022-12-18T07:42:41;28.10;;;11.77;;
18661;SDS011;61528;49.456;11.098;2022-12-18T07:45:08;29.93;;;13.17;;
18661;SDS011;61528;49.456;11.098;2022-12-18T07:47:35;31.43;;;12.43;;
18661;SDS011;61528;49.456;11.098;2022-12-18T07:50:02;33.37;;;14.23;;
18661;SDS011;61528;49.456;11.098;2022-12-18T07:52:28;26.20;;;12.60;;
18661;SDS011;61528;49.456;11.098;2022-12-18T07:54:54;31.73;;;12.83;;
18661;SDS011;61528;49.456;11.098;2022-12-18T07:57:20;31.43;;;12.97;;
18661;SDS011;61528;49.456;11.098;2022-12-18T07:59:46;31.63;;;12.57;;
18661;SDS011;61528;49.456;11.098;2022-12-18T08:02:12;28.67;;;12.63;;
18661;SDS011;61528;49.456;11.098;2022-12-18T08:04:39;30.40;;;12.70;;
18661;SDS011;61528;49.456;11.098;2022-12-18T08:07:05;35.60;;;14.60;;
18661;SDS011;61528;49.456;11.098;2022-12-18T08:09:31;32.43;;;13.17;;
18661;SDS011;61528;49.456;11.098;2022-12-18T08:11:58;30.23;;;12.10;;
18661;SDS011;61528;49.456;11.098;2022-12-18T08:14:24;32.90;;;14.60;;
18661;SDS011;61528;49.456;11.098;2022-12-18T08:16:53;33.27;;;13.30;;
18661;SDS011;61528;49.456;11.098;2022-12-18T08:19:19;32.70;;;13.83;;
18661;SDS011;61528;49.456;11.098;2022-12-18T08:21:46;31.97;;;12.97;;
18661;SDS011;61528;49.456;11.098;2022-12-18T08:24:13;34.50;;;13.90;;
18661;SDS011;61528;49.456;11.098;2022-12-18T08:26:39;29.00;;;12.87;;
18661;SDS011;61528;49.456;11.098;2022-12-18T08:29:05;35.80;;;13.97;;
18661;SDS011;61528;49.456;11.098;2022-12-18T08:31:31;34.87;;;14.27;;
18661;SDS011;61528;49.456;11.098;2022-12-18T08:33:58;37.10;;;14.70;;
18661;SDS011;61528;49.456;11.098;2022-12-18T08:36:24;33.10;;;13.13;;
18661;SDS011;61528;49.456;11.098;2022-12-18T08:38:51;35.47;;;12.53;;
18661;SDS011;61528;49.456;11.098;2022-12-18T08:41:18;35.80;;;14.40;;
18661;SDS011;61528;49.456;11.098;2022-12-18T08:43:44;33.27;;;13.33;;
18661;SDS011;61528;49.456;11.098;2022-12-18T08:46:36;30.23;;;12.53;;
18661;SDS011;61528;49.456;11.098;2022-12-18T08:49:03;35.47;;;13.13;;
18661;SDS011;61528;49.456;11.098;2022-12-18T08:51:29;29.30;;;13.27;;
18661;SDS011;61528;49.456;11.098;2022-12-18T08:53:56;31.93;;;13.23;;
18661;SDS011;61528;49.456;11.098;2022-12-18T08:56:22;35.20;;;13.90;;
18661;SDS011;61528;49.456;11.098;2022-12-18T08:58:51;34.70;;;15.00;;
18661;SDS011;61528;49.456;11.098;2022-12-18T09:01:17;35.60;;;14.83;;
18661;SDS011;61528;49.456;11.098;2022-12-18T09:03:44;31.30;;;12.50;;
18661;SDS011;61528;49.456;11.098;2022-12-18T09:06:12;30.53;;;13.03;;
18661;SDS011;61528;49.456;11.098;2022-12-18T09:08:39;31.37;;;12.43;;
18661;SDS011;61528;49.456;11.098;2022-12-18T09:11:09;28.13;;;11.63;;
18661;SDS011;61528;49.456;11.098;2022-12-18T09:13:37;35.57;;;14.50;;
18661;SDS011;61528;49.456;11.098;2022-12-18T09:16:03;31.13;;;13.07;;
18661;SDS011;61528;49.456;11.098;2022-12-18T09:18:30;32.27;;;14.67;;
18661;SDS011;61528;49.456;11.098;2022-12-18T09:20:56;26.70;;;10.93;;
18661;SDS011;61528;49.456;11.098;2022-12-18T09:23:22;31.87;;;13.67;;
18661;SDS011;61528;49.456;11.098;2022-12-18T09:25:48;22.20;;;11.00;;
18661;SDS011;61528;49.456;11.098;2022-12-18T09:28:17;31.57;;;13.17;;
18661;SDS011;61528;49.456;11.098;2022-12-18T09:30:45;32.27;;;13.40;;
18661;SDS011;61528;49.456;11.098;2022-12-18T09:33:12;33.90;;;13.80;;
18661;SDS011;61528;49.456;11.098;2022-12-18T09:35:39;29.50;;;12.97;;
18661;SDS011;61528;49.456;11.098;2022-12-18T09:38:05;24.43;;;11.37;;
18661;SDS011;61528;49.456;11.098;2022-12-18T09:40:35;25.40;;;11.27;;
18661;SDS011;61528;49.456;11.098;2022-12-18T09:43:03;27.30;;;11.07;;
18661;SDS011;61528;49.456;11.098;2022-12-18T09:45:38;27.83;;;13.10;;
18661;SDS011;61528;49.456;11.098;2022-12-18T09:48:05;27.10;;;11.43;;
18661;SDS011;61528;49.456;11.098;2022-12-18T09:50:35;31.77;;;12.37;;
18661;SDS011;61528;49.456;11.098;2022-12-18T09:53:06;34.40;;;14.63;;
18661;SDS011;61528;49.456;11.098;2022-12-18T09:55:40;30.40;;;13.77;;
18661;SDS011;61528;49.456;11.098;2022-12-18T10:00:37;29.20;;;13.40;;
18661;SDS011;61528;49.456;11.098;2022-12-18T10:03:13;26.87;;;12.27;;
18661;SDS011;61528;49.456;11.098;2022-12-18T10:05:46;25.03;;;11.87;;
18661;SDS011;61528;49.456;11.098;2022-12-18T10:10:47;30.03;;;13.57;;
18661;SDS011;61528;49.456;11.098;2022-12-18T10:13:22;22.97;;;10.43;;
18661;SDS011;61528;49.456;11.098;2022-12-18T10:18:23;22.20;;;10.67;;
18661;SDS011;61528;49.456;11.098;2022-12-18T10:20:52;25.83;;;11.80;;
18661;SDS011;61528;49.456;11.098;2022-12-18T10:23:23;22.90;;;10.97;;
18661;SDS011;61528;49.456;11.098;2022-12-18T10:26:06;28.47;;;11.87;;
18661;SDS011;61528;49.456;11.098;2022-12-18T10:28:35;23.70;;;11.27;;
18661;SDS011;61528;49.456;11.098;2022-12-18T10:31:01;25.33;;;11.47;;
18661;SDS011;61528;49.456;11.098;2022-12-18T10:33:29;25.17;;;11.70;;
18661;SDS011;61528;49.456;11.098;2022-12-18T10:35:56;28.37;;;12.43;;
18661;SDS011;61528;49.456;11.098;2022-12-18T10:38:24;24.77;;;11.53;;
18661;SDS011;61528;49.456;11.098;2022-12-18T10:43:20;28.13;;;11.70;;
18661;SDS011;61528;49.456;11.098;2022-12-18T10:48:32;23.67;;;11.20;;
18661;SDS011;61528;49.456;11.098;2022-12-18T10:50:59;28.73;;;12.57;;
18661;SDS011;61528;49.456;11.098;2022-12-18T10:53:27;24.93;;;11.80;;
18661;SDS011;61528;49.456;11.098;2022-12-18T10:55:54;25.03;;;12.07;;
18661;SDS011;61528;49.456;11.098;2022-12-18T10:58:28;28.70;;;13.40;;
18661;SDS011;61528;49.456;11.098;2022-12-18T11:01:04;25.93;;;11.60;;
18661;SDS011;61528;49.456;11.098;2022-12-18T11:03:31;25.10;;;10.67;;
18661;SDS011;61528;49.456;11.098;2022-12-18T11:06:13;27.97;;;12.23;;
18661;SDS011;61528;49.456;11.098;2022-12-18T11:08:40;26.97;;;12.57;;
18661;SDS011;61528;49.456;11.098;2022-12-18T11:11:14;27.87;;;12.67;;
18661;SDS011;61528;49.456;11.098;2022-12-18T11:13:41;28.33;;;12.37;;
18661;SDS011;61528;49.456;11.098;2022-12-18T11:16:19;28.37;;;12.63;;
18661;SDS011;61528;49.456;11.098;2022-12-18T11:18:45;23.73;;;11.10;;
18661;SDS011;61528;49.456;11.098;2022-12-18T11:21:11;26.73;;;12.07;;
18661;SDS011;61528;49.456;11.098;2022-12-18T11:23:45;31.57;;;13.47;;
18661;SDS011;61528;49.456;11.098;2022-12-18T11:26:12;23.80;;;10.57;;
18661;SDS011;61528;49.456;11.098;2022-12-18T11:28:40;29.90;;;11.87;;
18661;SDS011;61528;49.456;11.098;2022-12-18T11:31:18;26.53;;;12.40;;
18661;SDS011;61528;49.456;11.098;2022-12-18T11:34:01;25.93;;;11.97;;
18661;SDS011;61528;49.456;11.098;2022-12-18T11:36:33;27.13;;;13.23;;
18661;SDS011;61528;49.456;11.098;2022-12-18T11:39:05;30.63;;;13.17;;
18661;SDS011;61528;49.456;11.098;2022-12-18T11:41:39;27.87;;;12.60;;
18661;SDS011;61528;49.456;11.098;2022-12-18T11:44:27;27.17;;;12.57;;
18661;SDS011;61528;49.456;11.098;2022-12-18T11:47:01;24.03;;;12.17;;
18661;SDS011;61528;49.456;11.098;2022-12-18T11:49:35;28.13;;;12.23;;
18661;SDS011;61528;49.456;11.098;2022-12-18T11:52:15;25.60;;;12.20;;
18661;SDS011;61528;49.456;11.098;2022-12-18T11:54:43;27.93;;;12.27;;
18661;SDS011;61528;49.456;11.098;2022-12-18T12:00:02;22.17;;;10.50;;
18661;SDS011;61528;49.456;11.098;2022-12-18T12:07:47;22.70;;;11.27;;
18661;SDS011;61528;49.456;11.098;2022-12-18T12:12:53;25.03;;;12.57;;
18661;SDS011;61528;49.456;11.098;2022-12-18T12:20:19;27.10;;;13.57;;
18661;SDS011;61528;49.456;11.098;2022-12-18T12:22:51;29.17;;;13.60;;
18661;SDS011;61528;49.456;11.098;2022-12-18T12:28:20;24.53;;;12.43;;
18661;SDS011;61528;49.456;11.098;2022-12-18T12:38:25;25.37;;;12.93;;
18661;SDS011;61528;49.456;11.098;2022-12-18T12:40:57;29.80;;;13.83;;
18661;SDS011;61528;49.456;11.098;2022-12-18T12:43:27;29.37;;;13.33;;
18661;SDS011;61528;49.456;11.098;2022-12-18T12:46:05;26.10;;;12.87;;
18661;SDS011;61528;49.456;11.098;2022-12-18T12:48:40;22.87;;;11.80;;
18661;SDS011;61528;49.456;11.098;2022-12-18T12:51:08;27.77;;;13.20;;
18661;SDS011;61528;49.456;11.098;2022-12-18T12:53:37;27.07;;;13.70;;
18661;SDS011;61528;49.456;11.098;2022-12-18T12:56:04;25.23;;;13.00;;
18661;SDS011;61528;49.456;11.098;2022-12-18T13:04:01;23.53;;;11.80;;
18661;SDS011;61528;49.456;11.098;2022-12-18T13:06:40;25.90;;;12.03;;
18661;SDS011;61528;49.456;11.098;2022-12-18T13:09:08;24.50;;;12.67;;
18661;SDS011;61528;49.456;11.098;2022-12-18T13:14:23;23.33;;;12.77;;
18661;SDS011;61528;49.456;11.098;2022-12-18T13:16:50;21.73;;;11.77;;
18661;SDS011;61528;49.456;11.098;2022-12-18T13:19:23;23.13;;;11.73;;
18661;SDS011;61528;49.456;11.098;2022-12-18T13:21:52;21.20;;;12.20;;
18661;SDS011;61528;49.456;11.098;2022-12-18T13:24:26;24.40;;;12.03;;
18661;SDS011;61528;49.456;11.098;2022-12-18T13:26:53;21.30;;;11.43;;
18661;SDS011;61528;49.456;11.098;2022-12-18T13:32:15;23.90;;;11.40;;
18661;SDS011;61528;49.456;11.098;2022-12-18T13:34:45;23.40;;;11.73;;
18661;SDS011;61528;49.456;11.098;2022-12-18T13:39:56;21.37;;;10.97;;
18661;SDS011;61528;49.456;11.098;2022-12-18T13:47:52;19.83;;;10.80;;
18661;SDS011;61528;49.456;11.098;2022-12-18T13:50:25;21.80;;;11.80;;
18661;SDS011;61528;49.456;11.098;2022-12-18T13:52:52;22.53;;;10.63;;
18661;SDS011;61528;49.456;11.098;2022-12-18T13:55:18;23.53;;;11.20;;
18661;SDS011;61528;49.456;11.098;2022-12-18T13:57:45;21.63;;;11.40;;
18661;SDS011;61528;49.456;11.098;2022-12-18T14:00:25;21.90;;;11.17;;
18661;SDS011;61528;49.456;11.098;2022-12-18T14:02:53;23.07;;;12.40;;
18661;SDS011;61528;49.456;11.098;2022-12-18T14:07:58;24.50;;;12.10;;
18661;SDS011;61528;49.456;11.098;2022-12-18T14:10:26;23.73;;;11.93;;
18661;SDS011;61528;49.456;11.098;2022-12-18T14:12:53;23.17;;;12.97;;
18661;SDS011;61528;49.456;11.098;2022-12-18T14:20:31;22.50;;;12.00;;
18661;SDS011;61528;49.456;11.098;2022-12-18T14:22:58;25.97;;;12.60;;
18661;SDS011;61528;49.456;11.098;2022-12-18T14:25:26;25.77;;;12.97;;
18661;SDS011;61528;49.456;11.098;2022-12-18T14:27:59;23.10;;;11.73;;
18661;SDS011;61528;49.456;11.098;2022-12-18T14:30:29;21.47;;;12.80;;
18661;SDS011;61528;49.456;11.098;2022-12-18T14:35:32;23.60;;;12.20;;
18661;SDS011;61528;49.456;11.098;2022-12-18T14:38:11;21.37;;;11.43;;
18661;SDS011;61528;49.456;11.098;2022-12-18T14:40:37;22.30;;;12.17;;
18661;SDS011;61528;49.456;11.098;2022-12-18T14:43:03;23.97;;;12.40;;
18661;SDS011;61528;49.456;11.098;2022-12-18T14:45:37;22.00;;;12.03;;
18661;SDS011;61528;49.456;11.098;2022-12-18T14:48:17;23.93;;;12.60;;
18661;SDS011;61528;49.456;11.098;2022-12-18T14:50:45;23.43;;;11.90;;
18661;SDS011;61528;49.456;11.098;2022-12-18T14:53:21;25.00;;;12.87;;
18661;SDS011;61528;49.456;11.098;2022-12-18T14:55:49;23.17;;;11.43;;
18661;SDS011;61528;49.456;11.098;2022-12-18T14:58:16;26.93;;;12.70;;
18661;SDS011;61528;49.456;11.098;2022-12-18T15:00:43;30.00;;;13.97;;
18661;SDS011;61528;49.456;11.098;2022-12-18T15:03:10;22.27;;;12.10;;
18661;SDS011;61528;49.456;11.098;2022-12-18T15:05:36;30.43;;;13.60;;
18661;SDS011;61528;49.456;11.098;2022-12-18T15:08:02;28.83;;;13.20;;
18661;SDS011;61528;49.456;11.098;2022-12-18T15:10:32;24.77;;;13.37;;
18661;SDS011;61528;49.456;11.098;2022-12-18T15:18:05;28.80;;;14.57;;
18661;SDS011;61528;49.456;11.098;2022-12-18T15:20:40;25.93;;;13.53;;
18661;SDS011;61528;49.456;11.098;2022-12-18T15:23:15;26.63;;;13.43;;
18661;SDS011;61528;49.456;11.098;2022-12-18T15:25:42;25.40;;;14.00;;
18661;SDS011;61528;49.456;11.098;2022-12-18T15:28:29;25.60;;;12.90;;
18661;SDS011;61528;49.456;11.098;2022-12-18T15:36:30;31.47;;;14.70;;
18661;SDS011;61528;49.456;11.098;2022-12-18T15:38:56;27.27;;;13.73;;
18661;SDS011;61528;49.456;11.098;2022-12-18T15:41:23;28.63;;;13.90;;
18661;SDS011;61528;49.456;11.098;2022-12-18T15:43:51;33.00;;;15.63;;
18661;SDS011;61528;49.456;11.098;2022-12-18T15:46:18;29.17;;;15.50;;
18661;SDS011;61528;49.456;11.098;2022-12-18T15:48:46;29.47;;;14.27;;
18661;SDS011;61528;49.456;11.098;2022-12-18T15:53:38;30.50;;;14.57;;
18661;SDS011;61528;49.456;11.098;2022-12-18T15:56:04;29.47;;;14.00;;
18661;SDS011;61528;49.456;11.098;2022-12-18T15:58:52;26.67;;;14.30;;
18661;SDS011;61528;49.456;11.098;2022-12-18T16:01:19;28.37;;;14.27;;
18661;SDS011;61528;49.456;11.098;2022-12-18T16:03:46;29.10;;;15.97;;
18661;SDS011;61528;49.456;11.098;2022-12-18T16:06:12;31.87;;;15.53;;
18661;SDS011;61528;49.456;11.098;2022-12-18T16:08:38;25.83;;;13.63;;
18661;SDS011;61528;49.456;11.098;2022-12-18T16:11:05;26.90;;;14.07;;
18661;SDS011;61528;49.456;11.098;2022-12-18T16:13:31;28.20;;;12.80;;
18661;SDS011;61528;49.456;11.098;2022-12-18T16:15:57;28.10;;;13.70;;
18661;SDS011;61528;49.456;11.098;2022-12-18T16:18:24;24.10;;;12.73;;
18661;SDS011;61528;49.456;11.098;2022-12-18T16:20:50;29.53;;;13.60;;